Time;durP1;ratioP1;P1;durP2;ratioP2;P2;SDS_P1;SDS_P2;PMS_P1;PMS_P2;Temp;Humidity;BMP_temperature;BMP_pressure;BME280_temperature;BME280_humidity;BME280_pressure;Samples;Min_cycle;Max_cycle;Signal;HPM_P1;HPM_P2
2023/02/24 00:01:59;;;;;;;26.83;16.92;;;;;;;9.04;89.42;97874.16;7387650;19;19940;-72
2023/02/24 00:04:29;;;;;;;26.42;17.08;;;;;;;9.05;89.37;97867.88;7386394;19;19947;-73
2023/02/24 00:06:56;;;;;;;26.17;15.23;;;;;;;9.02;89.17;97859.28;7391502;19;20292;-73
2023/02/24 00:09:25;;;;;;;27.23;15.80;;;;;;;9.02;89.19;97859.28;7388012;19;19922;-72
2023/02/24 00:11:58;;;;;;;28.67;15.73;;;;;;;8.98;89.06;97867.69;7387407;19;19918;-73
2023/02/24 00:14:34;;;;;;;24.25;14.85;;;;;;;8.95;89.28;97867.97;7381671;19;19922;-73
2023/02/24 00:17:01;;;;;;;29.20;16.23;;;;;;;8.86;89.78;97872.41;7389919;19;20371;-73
2023/02/24 00:19:31;;;;;;;29.00;16.08;;;;;;;8.79;90.18;97872.22;7385697;19;20251;-73
2023/02/24 00:21:58;;;;;;;27.13;16.80;;;;;;;8.75;90.69;97867.41;7386199;19;19927;-73
2023/02/24 00:24:26;;;;;;;25.02;15.35;;;;;;;8.84;90.10;97863.81;7383754;19;19970;-73
2023/02/24 00:26:58;;;;;;;27.77;17.05;;;;;;;8.77;90.41;97862.81;7384559;19;21465;-73
2023/02/24 00:29:27;;;;;;;31.23;16.63;;;;;;;8.83;90.33;97861.34;7380596;19;19926;-73
2023/02/24 00:31:58;;;;;;;28.70;17.75;;;;;;;8.82;90.55;97860.53;7381498;19;20342;-73
2023/02/24 00:34:27;;;;;;;26.45;16.08;;;;;;;8.87;90.24;97849.47;7384316;19;20255;-73
2023/02/24 00:36:56;;;;;;;31.30;18.35;;;;;;;8.81;90.31;97850.13;7387113;19;19929;-73
2023/02/24 00:39:34;;;;;;;31.60;18.13;;;;;;;8.74;90.65;97853.41;7384672;19;20385;-73
2023/02/24 00:42:05;;;;;;;29.42;18.50;;;;;;;8.77;90.52;97850.44;7383725;19;19925;-73
2023/02/24 00:44:38;;;;;;;25.85;16.13;;;;;;;8.79;90.33;97852.91;7383288;19;19978;-72
2023/02/24 00:47:07;;;;;;;29.45;18.10;;;;;;;8.69;90.63;97847.75;7387953;19;19914;-73
2023/02/24 00:49:35;;;;;;;29.17;17.80;;;;;;;8.78;90.47;97844.16;7383674;19;19922;-73
2023/02/24 00:52:05;;;;;;;28.75;18.65;;;;;;;8.75;90.51;97835.75;7387136;19;19926;-73
2023/02/24 00:54:35;;;;;;;28.08;16.85;;;;;;;8.77;90.24;97836.44;7391245;19;19923;-73
2023/02/24 00:57:02;;;;;;;27.70;19.67;;;;;;;8.68;90.64;97837.34;7392900;19;20669;-73
2023/02/24 00:59:29;;;;;;;35.58;18.80;;;;;;;8.62;90.80;97840.63;7388163;19;22161;-73
2023/02/24 01:01:55;;;;;;;27.98;17.95;;;;;;;8.71;90.57;97840.50;7392415;19;20251;-73
2023/02/24 01:04:22;;;;;;;27.65;16.73;;;;;;;8.73;90.54;97837.72;7388737;19;19922;-73
2023/02/24 01:06:51;;;;;;;29.25;18.52;;;;;;;8.67;90.73;97836.53;7391873;19;20386;-73
2023/02/24 01:09:19;;;;;;;34.85;20.83;;;;;;;8.63;91.28;97837.81;7390444;19;19911;-73
2023/02/24 01:14:34;;;;;;;35.30;21.50;;;;;;;8.75;90.71;97835.75;7386305;19;19918;-72
2023/02/24 01:17:02;;;;;;;32.08;19.55;;;;;;;8.82;90.54;97842.06;7391091;19;19923;-73
2023/02/24 01:19:30;;;;;;;29.55;17.67;;;;;;;8.76;90.47;97840.84;7390673;19;20635;-73
2023/02/24 01:22:02;;;;;;;35.42;20.33;;;;;;;8.68;90.82;97830.25;7391485;19;19933;-73
2023/02/24 01:24:36;;;;;;;34.95;19.58;;;;;;;8.69;90.99;97829.31;7388718;19;19911;-73
2023/02/24 01:27:06;;;;;;;31.35;18.10;;;;;;;8.68;90.88;97829.44;7392715;19;19919;-73
2023/02/24 01:29:38;;;;;;;36.22;20.52;;;;;;;8.54;91.69;97830.84;7388990;19;20315;-73
2023/02/24 01:32:15;;;;;;;34.65;20.88;;;;;;;8.33;92.91;97826.75;7387728;19;20394;-72
2023/02/24 01:34:43;;;;;;;39.45;21.52;;;;;;;8.38;92.83;97822.81;7391072;19;20422;-72
2023/02/24 01:37:15;;;;;;;34.83;20.17;;;;;;;8.56;92.40;97813.09;7389221;19;19925;-73
2023/02/24 01:39:46;;;;;;;36.47;21.63;;;;;;;8.47;92.35;97812.19;7388126;19;19915;-73
2023/02/24 01:42:15;;;;;;;35.90;20.95;;;;;;;8.46;92.46;97810.56;7387236;19;19946;-73
2023/02/24 01:44:42;;;;;;;31.15;19.45;;;;;;;8.52;92.23;97811.72;7390192;19;19922;-73
2023/02/24 01:47:09;;;;;;;33.30;20.08;;;;;;;8.45;92.25;97810.69;7388551;19;20258;-73
2023/02/24 01:49:42;;;;;;;32.83;20.33;;;;;;;8.34;92.86;97811.75;7387167;19;19914;-73
2023/02/24 01:52:30;;;;;;;34.25;20.23;;;;;;;8.43;92.65;97802.97;7385602;19;19925;-74
2023/02/24 01:55:27;;;;;;;35.20;19.90;;;;;;;8.47;92.38;97800.81;7386022;19;19941;-73
2023/02/24 01:57:55;;;;;;;31.73;19.60;;;;;;;8.40;92.56;97792.72;7391303;19;20343;-73
2023/02/24 02:00:36;;;;;;;34.42;20.33;;;;;;;8.38;92.66;97797.28;7387295;19;19914;-73
2023/02/24 02:03:11;;;;;;;29.80;17.52;;;;;;;8.45;92.26;97793.09;7386766;19;19933;-74
2023/02/24 02:05:39;;;;;;;31.75;18.13;;;;;;;8.42;92.62;97789.91;7386403;19;20744;-73
2023/02/24 02:08:07;;;;;;;33.45;19.42;;;;;;;8.42;92.31;97801.28;7391535;19;19914;-73
2023/02/24 02:10:39;;;;;;;37.65;21.10;;;;;;;8.31;92.77;97796.25;7391269;19;20275;-73
2023/02/24 02:13:06;;;;;;;34.22;20.45;;;;;;;8.31;92.90;97788.34;7387167;19;19915;-73
2023/02/24 02:15:42;;;;;;;36.10;19.50;;;;;;;8.35;92.72;97792.34;7392763;19;19926;-73
2023/02/24 02:18:19;;;;;;;37.08;21.00;;;;;;;8.34;92.67;97788.03;7388822;19;19926;-73
2023/02/24 02:20:58;;;;;;;39.58;22.08;;;;;;;8.21;92.93;97785.00;7390897;19;19919;-73
2023/02/24 02:23:57;;;;;;;38.72;20.75;;;;;;;8.11;93.63;97780.66;7388874;19;19938;-73
2023/02/24 02:26:52;;;;;;;38.78;22.08;;;;;;;8.20;93.59;97781.53;7389842;19;19933;-73
2023/02/24 02:29:34;;;;;;;44.83;23.05;;;;;;;8.15;93.37;97781.16;7388482;19;19925;-73
2023/02/24 02:32:15;;;;;;;41.67;22.77;;;;;;;8.21;93.53;97780.53;7391552;19;20371;-73
2023/02/24 02:34:49;;;;;;;44.13;23.83;;;;;;;8.18;93.46;97777.41;7390794;19;19919;-73
2023/02/24 02:37:36;;;;;;;44.42;23.42;;;;;;;8.17;93.83;97779.22;7393039;19;19975;-73
2023/02/24 02:40:18;;;;;;;42.00;22.90;;;;;;;8.17;93.73;97771.31;7389304;19;19906;-73
2023/02/24 02:42:46;;;;;;;40.50;20.83;;;;;;;8.25;93.69;97770.53;7387800;19;20399;-73
2023/02/24 02:45:19;;;;;;;37.03;21.75;;;;;;;8.32;93.39;97771.53;7384586;19;19925;-74
2023/02/24 02:48:14;;;;;;;42.17;22.25;;;;;;;8.27;93.08;97774.66;7389698;19;19935;-73
2023/02/24 02:50:47;;;;;;;42.38;20.52;;;;;;;8.30;93.19;97763.00;7387611;19;19926;-73
2023/02/24 02:53:18;;;;;;;42.45;22.05;;;;;;;8.23;93.33;97769.84;7386786;19;19918;-73
2023/02/24 02:55:54;;;;;;;44.38;22.17;;;;;;;8.25;93.39;97760.81;7386839;19;19917;-73
2023/02/24 02:58:25;;;;;;;41.53;21.63;;;;;;;8.29;93.17;97753.41;7386584;19;19923;-73
2023/02/24 03:01:01;;;;;;;38.50;21.15;;;;;;;8.33;93.01;97749.50;7387391;19;20278;-73
2023/02/24 03:03:32;;;;;;;36.58;21.67;;;;;;;8.23;93.06;97752.22;7387897;19;19934;-73
2023/02/24 03:06:05;;;;;;;41.70;21.67;;;;;;;8.11;93.55;97754.31;7388656;19;19914;-73
2023/02/24 03:08:36;;;;;;;42.60;21.10;;;;;;;8.13;93.80;97741.78;7386367;19;19934;-73
2023/02/24 03:11:07;;;;;;;41.72;21.95;;;;;;;8.22;93.38;97740.03;7390402;19;19914;-74
2023/02/24 03:13:36;;;;;;;38.75;21.73;;;;;;;8.27;93.02;97734.31;7385688;19;19929;-73
2023/02/24 03:16:05;;;;;;;41.97;22.73;;;;;;;8.22;92.64;97726.88;7391784;19;19932;-73
2023/02/24 03:18:38;;;;;;;40.28;22.27;;;;;;;8.15;92.45;97717.94;7386634;19;19929;-73
2023/02/24 03:21:07;;;;;;;39.38;20.80;;;;;;;8.09;92.13;97727.28;7384108;19;19945;-73
2023/02/24 03:23:45;;;;;;;36.00;19.85;;;;;;;8.04;92.35;97720.84;7383221;19;19919;-73
2023/02/24 03:26:27;;;;;;;36.40;20.08;;;;;;;8.00;92.14;97715.03;7387833;19;19925;-74
2023/02/24 03:28:54;;;;;;;39.35;22.50;;;;;;;7.88;92.15;97717.13;7400094;19;20668;-74
2023/02/24 03:31:47;;;;;;;33.28;19.73;;;;;;;7.94;92.34;97722.75;7397243;19;19923;-73
2023/02/24 03:34:18;;;;;;;38.25;20.42;;;;;;;7.95;92.17;97719.13;7390569;19;19929;-74
2023/02/24 03:36:46;;;;;;;32.50;19.38;;;;;;;7.95;92.47;97721.75;7389176;19;19946;-73
2023/02/24 03:39:14;;;;;;;37.30;20.38;;;;;;;7.99;92.26;97717.84;7382722;19;19923;-73
2023/02/24 03:42:10;;;;;;;38.92;22.00;;;;;;;7.97;92.22;97719.81;7383470;19;20013;-74
2023/02/24 03:44:37;;;;;;;36.75;20.58;;;;;;;7.95;92.29;97716.50;7385672;19;19922;-73
2023/02/24 03:47:04;;;;;;;35.33;19.30;;;;;;;7.94;92.28;97720.94;7387781;19;19918;-73
2023/02/24 03:49:31;;;;;;;35.33;20.80;;;;;;;7.94;92.24;97720.94;7381676;19;19914;-73
2023/02/24 03:52:28;;;;;;;36.03;20.42;;;;;;;7.94;92.24;97720.13;7382416;19;20551;-73
2023/02/24 03:55:08;;;;;;;39.58;20.92;;;;;;;8.01;92.50;97715.88;7384684;19;19922;-73
2023/02/24 03:58:03;;;;;;;38.75;21.35;;;;;;;8.06;92.49;97719.69;7385925;19;19939;-73
2023/02/24 04:00:45;;;;;;;41.30;20.38;;;;;;;8.04;92.90;97716.41;7379967;19;19923;-74
2023/02/24 04:03:27;;;;;;;38.67;21.02;;;;;;;8.03;93.22;97722.66;7378466;19;20263;-73
2023/02/24 04:06:37;;;;;;;41.50;21.77;;;;;;;7.98;93.39;97716.16;7383506;19;19924;-73
2023/02/24 04:09:09;;;;;;;47.13;24.20;;;;;;;8.05;93.13;97718.03;7383813;19;19944;-73
2023/02/24 04:12:15;;;;;;;45.88;23.27;;;;;;;8.00;93.40;97720.31;7383889;19;19919;-73
2023/02/24 04:14:53;;;;;;;49.15;23.17;;;;;;;7.94;93.72;97720.13;7382515;19;19984;-73
2023/02/24 04:17:34;;;;;;;44.75;23.10;;;;;;;7.96;93.88;97718.97;7381165;19;19982;-73
2023/02/24 04:20:12;;;;;;;50.67;24.63;;;;;;;8.03;93.70;97714.75;7382425;19;19922;-73
2023/02/24 04:22:47;;;;;;;45.15;24.60;;;;;;;8.02;93.50;97714.91;7381874;19;20532;-73
2023/02/24 04:25:25;;;;;;;46.38;23.35;;;;;;;8.05;93.14;97711.94;7383044;19;19915;-73
2023/02/24 04:27:57;;;;;;;52.72;26.83;;;;;;;7.95;93.48;97716.50;7389868;19;19931;-73
2023/02/24 04:30:26;;;;;;;46.03;21.25;;;;;;;8.00;93.09;97708.94;7385922;19;19922;-73
2023/02/24 04:32:53;;;;;;;52.67;23.17;;;;;;;8.00;93.13;97708.94;7386358;19;19926;-73
2023/02/24 04:35:21;;;;;;;51.67;25.63;;;;;;;7.95;93.21;97711.22;7383953;19;20614;-73
2023/02/24 04:37:49;;;;;;;50.35;26.52;;;;;;;7.94;93.36;97709.59;7387014;19;19911;-73
2023/02/24 04:40:20;;;;;;;51.13;23.52;;;;;;;7.93;93.30;97708.75;7390148;19;19941;-73
2023/02/24 04:42:49;;;;;;;47.08;22.40;;;;;;;7.96;93.30;97710.25;7390036;19;19927;-72
2023/02/24 04:45:26;;;;;;;52.65;23.08;;;;;;;7.91;93.64;97705.44;7387914;19;19930;-73
2023/02/24 04:47:59;;;;;;;44.10;22.88;;;;;;;7.86;94.04;97702.44;7389761;19;19918;-73
2023/02/24 04:50:32;;;;;;;51.08;23.75;;;;;;;7.99;93.59;97702.03;7390469;19;19934;-73
2023/02/24 04:53:08;;;;;;;51.15;26.23;;;;;;;7.91;93.82;97692.28;7383384;19;19915;-73
2023/02/24 04:55:41;;;;;;;53.65;26.38;;;;;;;7.87;93.58;97691.78;7388446;19;20398;-73
2023/02/24 04:58:12;;;;;;;54.38;25.60;;;;;;;7.89;93.58;97691.59;7392912;19;19919;-73
2023/02/24 05:00:40;;;;;;;53.65;24.55;;;;;;;7.95;93.37;97676.97;7388289;19;19925;-73
2023/02/24 05:03:10;;;;;;;57.05;25.95;;;;;;;7.95;93.32;97677.81;7390012;19;19935;-73
2023/02/24 05:05:37;;;;;;;65.32;27.33;;;;;;;7.95;93.24;97672.53;7392067;19;19927;-73
2023/02/24 05:08:05;;;;;;;57.80;26.58;;;;;;;7.83;93.23;97677.25;7389609;19;19903;-73
2023/02/24 05:10:40;;;;;;;64.80;28.40;;;;;;;7.84;93.47;97655.19;7387848;19;19918;-73
2023/02/24 05:13:09;;;;;;;56.13;24.48;;;;;;;7.93;93.11;97664.00;7390083;19;19922;-73
2023/02/24 05:15:41;;;;;;;64.15;30.35;;;;;;;7.85;93.40;97656.03;7387808;19;19922;-73
2023/02/24 05:18:12;;;;;;;56.90;26.48;;;;;;;7.86;93.23;97653.22;7385901;19;19922;-73
2023/02/24 05:23:38;;;;;;;61.15;25.35;;;;;;;7.88;92.96;97643.38;7390823;19;19922;-73
2023/02/24 05:26:09;;;;;;;61.47;26.85;;;;;;;7.90;92.90;97637.97;7389571;19;21121;-73
2023/02/24 05:28:39;;;;;;;61.33;27.15;;;;;;;7.87;92.75;97641.75;7389325;19;19926;-73
2023/02/24 05:31:08;;;;;;;61.95;29.25;;;;;;;7.85;92.70;97633.16;7392238;19;19956;-73
2023/02/24 05:33:42;;;;;;;56.45;25.38;;;;;;;7.94;92.58;97638.47;7390082;19;19914;-73
2023/02/24 05:36:14;;;;;;;58.47;24.05;;;;;;;7.99;92.47;97628.28;7392744;19;19918;-73
2023/02/24 05:38:40;;;;;;;54.78;24.65;;;;;;;8.02;92.65;97627.97;7391619;19;19926;-73
2023/02/24 05:41:15;;;;;;;47.55;23.92;;;;;;;8.00;92.48;97624.66;7388934;19;19934;-73
2023/02/24 05:43:51;;;;;;;58.38;27.13;;;;;;;7.94;92.54;97630.56;7385033;19;19918;-74
2023/02/24 05:46:19;;;;;;;57.88;27.10;;;;;;;7.89;92.49;97623.13;7389668;19;20347;-74
2023/02/24 05:48:50;;;;;;;61.30;26.50;;;;;;;7.79;93.10;97625.06;7388850;19;19918;-73
2023/02/24 05:51:16;;;;;;;68.47;28.17;;;;;;;7.76;93.16;97623.56;7387902;19;19918;-73
2023/02/24 05:53:43;;;;;;;66.50;29.83;;;;;;;7.75;93.34;97615.81;7388180;19;19919;-73
2023/02/24 05:56:10;;;;;;;70.40;29.38;;;;;;;7.77;93.41;97622.59;7386021;19;19915;-73
2023/02/24 05:58:38;;;;;;;70.28;30.73;;;;;;;7.57;94.00;97621.16;7387980;19;19926;-73
2023/02/24 06:01:14;;;;;;;76.07;33.72;;;;;;;7.53;93.89;97619.78;7387146;19;19993;-73
2023/02/24 06:03:45;;;;;;;79.32;31.45;;;;;;;7.54;94.10;97627.53;7391974;19;20451;-73
2023/02/24 06:06:15;;;;;;;79.35;30.60;;;;;;;7.53;94.07;97620.66;7389770;19;19922;-72
2023/02/24 06:08:48;;;;;;;80.57;33.10;;;;;;;7.54;94.09;97624.91;7386447;19;19915;-73
2023/02/24 06:11:17;;;;;;;83.15;32.30;;;;;;;7.48;93.84;97621.09;7388766;19;20076;-73
2023/02/24 06:13:48;;;;;;;82.28;31.55;;;;;;;7.34;94.28;97618.19;7384904;19;19923;-72
2023/02/24 06:16:16;;;;;;;;;;;;;;;7.36;94.55;97611.78;7386682;19;19921;-72
2023/02/24 06:18:46;;;;;;;75.85;31.52;;;;;;;7.25;94.89;97615.50;7390538;19;19918;-73
2023/02/24 06:21:13;;;;;;;83.75;32.47;;;;;;;7.26;94.58;97601.34;7387489;19;20281;-73
2023/02/24 06:23:40;;;;;;;87.32;34.53;;;;;;;7.19;95.11;97613.50;7387058;19;19951;-72
2023/02/24 06:26:11;;;;;;;80.28;33.28;;;;;;;7.42;94.54;97610.34;7391084;19;19926;-73
2023/02/24 06:28:42;;;;;;;95.45;32.38;;;;;;;7.46;94.48;97607.25;7387944;19;19918;-73
2023/02/24 06:31:09;;;;;;;86.35;33.03;;;;;;;7.43;94.03;97610.22;7383538;19;20495;-73
2023/02/24 06:33:40;;;;;;;85.13;35.03;;;;;;;7.39;94.66;97615.94;7384603;19;19986;-73
2023/02/24 06:36:07;;;;;;;85.90;32.83;;;;;;;7.42;94.27;97610.34;7384377;19;19946;-73
2023/02/24 06:38:35;;;;;;;90.93;35.33;;;;;;;7.37;94.28;97602.94;7388759;19;19915;-73
2023/02/24 06:41:09;;;;;;;76.68;31.08;;;;;;;7.37;94.36;97609.97;7389190;19;20284;-72
2023/02/24 06:43:42;;;;;;;95.72;35.83;;;;;;;7.30;94.30;97611.59;7390613;19;19927;-73
2023/02/24 06:46:11;;;;;;;84.65;33.45;;;;;;;7.42;94.22;97605.09;7388046;19;19919;-72
2023/02/24 06:48:38;;;;;;;87.60;33.15;;;;;;;7.46;94.06;97606.44;7386789;19;20263;-72
2023/02/24 06:51:05;;;;;;;93.82;35.28;;;;;;;7.44;93.75;97601.31;7386147;19;19918;-73
2023/02/24 06:53:41;;;;;;;98.72;35.90;;;;;;;7.41;94.15;97588.47;7385642;19;19958;-72
2023/02/24 06:56:19;;;;;;;90.60;33.45;;;;;;;7.35;94.35;97590.91;7386893;19;19914;-72
2023/02/24 06:58:50;;;;;;;83.30;31.98;;;;;;;7.47;94.11;97584.41;7386794;19;19925;-73
2023/02/24 07:01:25;;;;;;;91.60;32.60;;;;;;;7.51;93.85;97593.66;7389005;19;19911;-72
2023/02/24 07:06:37;;;;;;;101.28;36.17;;;;;;;7.51;93.81;97592.81;7385909;19;20014;-73
2023/02/24 07:09:06;;;;;;;91.57;32.40;;;;;;;7.47;93.61;97587.84;7389395;19;19925;-73
2023/02/24 07:11:34;;;;;;;93.90;35.05;;;;;;;7.61;93.37;97588.25;7388845;19;19946;-73
2023/02/24 07:14:04;;;;;;;93.95;32.67;;;;;;;7.71;93.20;97586.34;7386464;19;19918;-73
2023/02/24 07:16:33;;;;;;;98.57;35.13;;;;;;;7.72;92.90;97595.09;7386553;19;19918;-73
2023/02/24 07:19:09;;;;;;;83.35;30.65;;;;;;;7.73;92.81;97588.81;7388919;19;19977;-73
2023/02/24 07:21:42;;;;;;;92.63;31.85;;;;;;;7.64;92.97;97587.97;7388725;19;19922;-73
2023/02/24 07:24:12;;;;;;;97.85;33.90;;;;;;;7.69;92.82;97585.69;7385021;19;19923;-73
2023/02/24 07:26:40;;;;;;;101.85;33.72;;;;;;;7.66;92.66;97583.34;7392331;19;19922;-73
2023/02/24 07:29:10;;;;;;;106.28;35.97;;;;;;;7.51;92.95;97587.56;7385730;19;19950;-73
2023/02/24 07:31:37;;;;;;;100.63;35.60;;;;;;;7.53;92.96;97577.69;7390755;19;19918;-73
2023/02/24 07:34:05;;;;;;;96.43;32.53;;;;;;;7.44;92.68;97582.91;7390748;19;19982;-73
2023/02/24 07:36:37;;;;;;;106.38;34.13;;;;;;;7.62;92.64;97577.56;7388597;19;19923;-73
2023/02/24 07:39:08;;;;;;;112.32;33.63;;;;;;;7.58;92.59;97572.78;7385222;19;19922;-73
2023/02/24 07:41:35;;;;;;;107.25;34.38;;;;;;;7.51;92.45;97571.78;7385772;19;19923;-73
2023/02/24 07:44:02;;;;;;;102.70;31.63;;;;;;;7.70;92.36;97579.44;7389540;19;19930;-73
2023/02/24 07:46:30;;;;;;;100.82;34.03;;;;;;;7.69;92.35;97575.97;7387161;19;19918;-73
2023/02/24 07:49:00;;;;;;;106.57;32.90;;;;;;;7.74;92.08;97577.28;7388902;19;19915;-72
2023/02/24 07:51:28;;;;;;;97.13;32.05;;;;;;;7.81;91.93;97573.88;7389992;19;19933;-73
2023/02/24 07:53:57;;;;;;;94.68;30.05;;;;;;;7.77;91.71;97577.00;7387905;19;19922;-73
2023/02/24 07:56:26;;;;;;;102.65;32.78;;;;;;;7.78;91.73;97574.19;7383858;19;19911;-72
2023/02/24 07:58:58;;;;;;;92.10;31.73;;;;;;;7.78;91.44;97568.94;7387294;19;19940;-72
2023/02/24 08:01:37;;;;;;;86.70;30.00;;;;;;;7.84;91.47;97568.28;7384320;19;19922;-72
2023/02/24 08:04:06;;;;;;;86.07;29.83;;;;;;;7.90;91.47;97562.41;7387476;19;20332;-73
2023/02/24 08:06:42;;;;;;;94.65;31.35;;;;;;;7.84;91.25;97562.19;7387309;19;19915;-72
2023/02/24 08:09:19;;;;;;;81.70;29.02;;;;;;;7.78;90.99;97561.03;7385864;19;19926;-73
2023/02/24 08:11:54;;;;;;;79.13;29.92;;;;;;;7.99;90.88;97555.34;7388281;19;19918;-73
2023/02/24 08:14:23;;;;;;;86.35;29.10;;;;;;;7.98;90.76;97550.22;7384219;19;19947;-73
2023/02/24 08:16:52;;;;;;;81.13;30.25;;;;;;;7.96;90.54;97546.97;7388044;19;19923;-73
2023/02/24 08:19:19;;;;;;;78.30;29.63;;;;;;;7.99;90.30;97549.28;7386714;19;19959;-73
2023/02/24 08:21:51;;;;;;;74.60;26.98;;;;;;;7.77;90.37;97548.03;7387472;19;19919;-73
2023/02/24 08:24:22;;;;;;;90.18;32.17;;;;;;;7.53;90.57;97552.22;7383642;19;20556;-73
2023/02/24 08:27:03;;;;;;;83.22;28.95;;;;;;;7.58;90.74;97547.31;7387779;19;19930;-73
2023/02/24 08:29:36;;;;;;;75.70;28.35;;;;;;;7.84;90.17;97541.97;7382638;19;19922;-72
2023/02/24 08:32:08;;;;;;;78.50;31.38;;;;;;;7.68;89.87;97553.25;7387295;19;19926;-72
2023/02/24 08:34:35;;;;;;;90.65;30.70;;;;;;;7.70;90.17;97553.09;7383314;19;19930;-72
2023/02/24 08:37:03;;;;;;;83.00;30.05;;;;;;;7.77;90.07;97534.88;7387888;19;19914;-72
2023/02/24 08:39:32;;;;;;;88.50;29.58;;;;;;;7.92;90.02;97538.53;7385932;19;19918;-72
2023/02/24 08:41:59;;;;;;;72.63;27.73;;;;;;;7.94;89.66;97533.94;7387255;19;20658;-72
2023/02/24 08:44:26;;;;;;;75.50;29.23;;;;;;;8.05;89.46;97528.38;7384721;19;19926;-72
2023/02/24 08:46:54;;;;;;;81.13;28.15;;;;;;;8.06;89.51;97530.03;7382690;19;20339;-72
2023/02/24 08:49:23;;;;;;;81.25;30.20;;;;;;;8.00;89.63;97527.19;7382606;19;19923;-72
2023/02/24 08:51:51;;;;;;;89.28;29.80;;;;;;;8.08;89.30;97527.22;7384181;19;19945;-72
2023/02/24 08:54:25;;;;;;;72.90;28.25;;;;;;;8.18;89.02;97527.91;7385958;19;20316;-72
2023/02/24 08:57:06;;;;;;;73.50;27.70;;;;;;;8.19;88.68;97524.31;7385248;19;19922;-73
2023/02/24 08:59:39;;;;;;;76.22;24.38;;;;;;;8.44;88.74;97522.56;7383912;19;19914;-72
2023/02/24 09:02:25;;;;;;;69.78;27.10;;;;;;;8.50;88.56;97515.78;7384192;19;19911;-72
2023/02/24 09:05:09;;;;;;;75.53;27.73;;;;;;;8.56;87.82;97518.63;7385952;19;19914;-73
2023/02/24 09:07:40;;;;;;;70.13;26.73;;;;;;;8.64;87.18;97509.88;7388957;19;19926;-73
2023/02/24 09:10:16;;;;;;;80.13;28.20;;;;;;;8.69;86.68;97507.59;7385486;19;19937;-72
2023/02/24 09:12:43;;;;;;;72.82;26.38;;;;;;;8.74;86.81;97514.97;7389145;19;19922;-74
2023/02/24 09:15:14;;;;;;;66.75;25.65;;;;;;;8.85;86.46;97512.03;7391204;19;19922;-73
2023/02/24 09:23:06;;;;;;;68.03;25.25;;;;;;;8.57;86.84;97509.72;7390795;19;19922;-73
2023/02/24 09:25:48;;;;;;;59.83;23.48;;;;;;;8.57;87.27;97506.25;7391475;19;19918;-74
2023/02/24 09:28:19;;;;;;;60.38;24.50;;;;;;;8.54;86.87;97509.22;7389739;19;19917;-73
2023/02/24 09:30:52;;;;;;;67.63;26.48;;;;;;;8.30;87.67;97508.19;7394315;19;19932;-74
2023/02/24 09:33:37;;;;;;;66.32;26.23;;;;;;;8.29;87.48;97506.53;7393732;19;19974;-73
2023/02/24 09:36:11;;;;;;;71.50;27.00;;;;;;;8.32;87.82;97503.56;7387482;19;19922;-74
2023/02/24 09:41:52;;;;;;;66.20;24.35;;;;;;;8.33;87.57;97497.31;7391071;19;19915;-73
2023/02/24 09:44:32;;;;;;;63.30;24.50;;;;;;;8.55;87.35;97492.41;7391875;19;20347;-73
2023/02/24 09:47:08;;;;;;;56.55;24.23;;;;;;;8.75;87.57;97495.56;7394621;19;19999;-74
2023/02/24 09:49:57;;;;;;;60.17;23.70;;;;;;;8.99;87.07;97489.41;7388985;19;19956;-74
2023/02/24 09:52:42;;;;;;;54.08;22.75;;;;;;;9.13;86.54;97485.25;7384219;19;20370;-74
2023/02/24 09:55:25;;;;;;;62.75;24.98;;;;;;;9.20;85.35;97483.59;7389647;19;19914;-74
2023/02/24 09:58:23;;;;;;;55.67;23.42;;;;;;;9.48;85.34;97470.81;7392748;19;19922;-73
2023/02/24 10:01:19;;;;;;;61.85;24.88;;;;;;;9.86;84.47;97474.44;7388162;19;20552;-73
2023/02/24 10:03:50;;;;;;;58.05;22.70;;;;;;;10.03;83.13;97469.06;7389403;19;19951;-74
2023/02/24 10:06:25;;;;;;;53.78;22.05;;;;;;;9.86;81.29;97473.63;7384910;19;19915;-73
2023/02/24 10:09:10;;;;;;;45.95;20.15;;;;;;;9.85;81.74;97477.28;7387397;19;19918;-73
2023/02/24 10:12:02;;;;;;;54.20;22.88;;;;;;;9.82;81.49;97474.94;7385399;19;19918;-71
2023/02/24 10:14:52;;;;;;;41.25;19.30;;;;;;;10.03;81.88;97471.69;7388068;19;20415;-73
2023/02/24 10:17:38;;;;;;;49.97;20.85;;;;;;;10.01;81.03;97468.44;7389069;19;20597;-73
2023/02/24 10:20:27;;;;;;;40.10;17.48;;;;;;;9.71;81.32;97462.94;7387417;19;20543;-73
2023/02/24 10:22:56;;;;;;;;;;;;;;;9.61;81.44;97468.47;7392230;19;19918;-73
2023/02/24 10:25:41;;;;;;;38.75;17.35;;;;;;;9.64;81.84;97467.28;7382021;19;19949;-73
2023/02/24 10:28:34;;;;;;;38.72;15.90;;;;;;;9.29;82.60;97471.22;7386232;19;19926;-73
2023/02/24 10:31:23;;;;;;;34.47;14.75;;;;;;;9.14;82.33;97463.19;7390167;19;19918;-72
2023/02/24 10:34:04;;;;;;;36.58;15.63;;;;;;;9.07;82.55;97459.56;7392765;19;19923;-72
2023/02/24 10:36:34;;;;;;;31.08;15.05;;;;;;;8.99;83.28;97460.41;7389032;19;19915;-72
2023/02/24 10:39:14;;;;;;;37.22;15.68;;;;;;;9.01;83.63;97463.69;7386685;19;19911;-72
2023/02/24 10:41:56;;;;;;;32.35;14.35;;;;;;;9.15;83.55;97455.09;7386177;19;19926;-72
2023/02/24 10:44:34;;;;;;;33.63;15.35;;;;;;;9.15;83.72;97449.81;7382442;19;20346;-73
2023/02/24 10:47:13;;;;;;;34.67;15.68;;;;;;;9.21;83.28;97450.94;7389156;19;19925;-72
2023/02/24 10:49:41;;;;;;;43.10;16.90;;;;;;;9.13;83.32;97448.31;7385046;19;20668;-73
2023/02/24 10:52:28;;;;;;;36.38;15.85;;;;;;;9.18;83.11;97448.63;7388865;19;20069;-72
2023/02/24 10:58:04;;;;;;;42.75;18.23;;;;;;;9.27;83.08;97446.78;7388565;19;19923;-72
2023/02/24 11:03:40;;;;;;;44.83;17.52;;;;;;;9.35;82.30;97423.03;7390057;19;19911;-72
2023/02/24 11:09:18;;;;;;;45.38;19.52;;;;;;;9.05;82.21;97412.22;7388533;19;19926;-72
2023/02/24 11:17:26;;;;;;;50.47;18.95;;;;;;;9.16;81.45;97403.97;7380699;19;20394;-72
2023/02/24 11:19:57;;;;;;;54.08;19.40;;;;;;;9.11;82.02;97405.44;7386968;19;20667;-72
2023/02/24 11:22:31;;;;;;;46.55;19.20;;;;;;;8.97;82.22;97404.34;7384699;19;19931;-72
2023/02/24 11:25:04;;;;;;;40.65;18.05;;;;;;;9.21;82.22;97401.63;7387283;19;19923;-72
2023/02/24 11:27:31;;;;;;;47.00;18.58;;;;;;;9.14;81.10;97392.75;7389414;19;19918;-73
2023/02/24 11:30:21;;;;;;;46.90;19.67;;;;;;;9.08;81.75;97387.31;7387418;19;20240;-73
2023/02/24 11:33:12;;;;;;;46.63;17.27;;;;;;;9.11;81.47;97381.69;7384681;19;19910;-73
2023/02/24 11:35:45;;;;;;;49.75;19.90;;;;;;;9.09;81.71;97378.44;7381686;19;19929;-72
2023/02/24 11:38:16;;;;;;;46.58;18.33;;;;;;;8.89;82.10;97362.16;7387076;19;19922;-72
2023/02/24 11:40:47;;;;;;;44.47;18.63;;;;;;;9.03;81.86;97369.38;7388730;19;20368;-72
2023/02/24 11:43:21;;;;;;;50.95;19.52;;;;;;;8.66;82.41;97368.19;7389269;19;19949;-72
2023/02/24 11:46:08;;;;;;;44.42;17.67;;;;;;;8.96;82.23;97368.41;7388948;19;19941;-72
2023/02/24 11:48:41;;;;;;;50.17;18.92;;;;;;;8.93;81.55;97355.56;7387886;19;19943;-72
2023/02/24 11:51:22;;;;;;;48.17;19.63;;;;;;;8.89;81.75;97351.63;7385359;19;20506;-71
2023/02/24 11:53:59;;;;;;;48.75;18.83;;;;;;;9.08;81.74;97340.66;7383039;19;19937;-72
2023/02/24 11:56:26;;;;;;;;;;;;;;;9.01;81.38;97331.78;7390092;19;19918;-72
2023/02/24 11:59:21;;;;;;;46.20;19.88;;;;;;;8.90;81.58;97329.50;7389784;19;19921;-72
2023/02/24 12:02:15;;;;;;;47.80;18.77;;;;;;;8.85;81.47;97322.13;7387876;19;19914;-72
2023/02/24 12:04:50;;;;;;;48.58;18.73;;;;;;;8.95;81.69;97300.81;7392079;19;19918;-72
2023/02/24 12:07:26;;;;;;;44.92;18.73;;;;;;;9.29;80.90;97286.44;7387259;19;19929;-71
2023/02/24 12:09:58;;;;;;;35.20;16.23;;;;;;;9.48;80.49;97275.47;7387680;19;19926;-71
2023/02/24 12:13:00;;;;;;;46.08;18.88;;;;;;;9.39;79.68;97287.06;7388387;19;19922;-71
2023/02/24 12:15:30;;;;;;;43.58;18.65;;;;;;;9.49;80.14;97290.28;7386367;19;19918;-71
2023/02/24 12:18:22;;;;;;;46.08;18.48;;;;;;;9.75;78.97;97278.56;7391748;19;19991;-72
2023/02/24 12:20:54;;;;;;;48.58;20.13;;;;;;;9.87;79.13;97275.31;7388674;19;19941;-72
2023/02/24 12:23:28;;;;;;;43.90;20.05;;;;;;;9.66;79.08;97272.50;7387885;19;19919;-72
2023/02/24 12:26:15;;;;;;;51.72;20.42;;;;;;;9.61;78.65;97266.91;7389104;19;19922;-72
2023/02/24 12:29:07;;;;;;;46.42;18.20;;;;;;;10.01;78.48;97255.22;7373948;19;19919;-73
2023/02/24 12:31:53;;;;;;;49.65;19.83;;;;;;;10.06;77.78;97249.41;7364477;19;19942;-73